createdAt,value
2023-02-27T00:00:22.907Z,8.25
2023-02-27T00:01:24.772Z,7.00
2023-02-27T00:02:27.627Z,7.00
2023-02-27T00:03:29.362Z,8.75
2023-02-27T00:04:33.384Z,5.25
2023-02-27T00:05:35.048Z,8.75
2023-02-27T00:06:37.680Z,9.25
2023-02-27T00:07:39.365Z,7.50
2023-02-27T00:08:42.051Z,7.00
2023-02-27T00:09:43.973Z,6.00
2023-02-27T00:10:46.603Z,7.75
2023-02-27T00:11:48.284Z,11.25
2023-02-27T00:12:50.961Z,9.25
2023-02-27T00:13:52.619Z,10.25
2023-02-27T00:14:55.239Z,9.75
2023-02-27T00:15:56.918Z,9.75
2023-02-27T00:16:59.564Z,8.00
2023-02-27T00:18:01.288Z,10.00
2023-02-27T00:19:04.777Z,7.00
2023-02-27T00:20:11.050Z,7.75
2023-02-27T00:21:13.686Z,9.00
2023-02-27T00:22:15.353Z,7.00
2023-02-27T00:23:17.995Z,5.00
2023-02-27T00:24:19.658Z,7.00
2023-02-27T00:25:22.319Z,7.00
2023-02-27T00:26:24.006Z,7.00
2023-02-27T00:27:26.636Z,7.25
2023-02-27T00:28:29.341Z,9.00
2023-02-27T00:29:32.211Z,8.50
2023-02-27T00:30:33.900Z,7.50
2023-02-27T00:31:36.570Z,6.50
2023-02-27T00:32:38.250Z,7.75
2023-02-27T00:33:40.889Z,6.50
2023-02-27T00:34:42.618Z,9.00
2023-02-27T00:35:46.624Z,7.00
2023-02-27T00:36:48.313Z,9.00
2023-02-27T00:37:50.934Z,9.00
2023-02-27T00:38:52.605Z,6.75
2023-02-27T00:39:55.232Z,11.25
2023-02-27T00:40:56.929Z,9.25
2023-02-27T00:41:59.561Z,9.75
2023-02-27T00:43:01.252Z,9.00
2023-02-27T00:44:03.892Z,9.50
2023-02-27T00:45:06.448Z,7.00
2023-02-27T00:46:10.203Z,9.75
2023-02-27T00:47:11.898Z,7.00
2023-02-27T00:48:14.518Z,7.25
2023-02-27T00:49:16.353Z,10.25
2023-02-27T00:50:19.242Z,7.75
2023-02-27T00:51:22.697Z,10.25
2023-02-27T00:52:25.443Z,7.00
2023-02-27T00:53:27.096Z,9.00
2023-02-27T00:54:29.861Z,9.00
2023-02-27T00:55:31.529Z,6.00
2023-02-27T00:56:34.665Z,8.25
2023-02-27T00:57:36.483Z,9.50
2023-02-27T00:58:39.129Z,9.00
2023-02-27T00:59:41.060Z,7.00
2023-02-27T01:00:43.696Z,7.00
2023-02-27T01:01:45.438Z,7.00
2023-02-27T01:02:48.131Z,9.00
2023-02-27T01:03:49.790Z,9.50
2023-02-27T01:04:52.431Z,7.00
2023-02-27T01:05:54.085Z,9.00
2023-02-27T01:06:58.100Z,8.75
2023-02-27T01:07:59.765Z,7.25
2023-02-27T01:09:02.409Z,9.00
2023-02-27T01:10:04.481Z,8.25
2023-02-27T01:11:07.128Z,9.00
2023-02-27T01:12:09.005Z,9.00
2023-02-27T01:13:11.624Z,9.25
2023-02-27T01:14:13.275Z,8.75
2023-02-27T01:15:15.908Z,8.25
2023-02-27T01:16:17.569Z,6.75
2023-02-27T01:17:20.246Z,8.00
2023-02-27T01:18:21.921Z,7.75
2023-02-27T01:19:24.620Z,9.25
2023-02-27T01:20:26.275Z,5.75
2023-02-27T01:21:29.155Z,6.50
2023-02-27T01:22:33.305Z,7.75
2023-02-27T01:23:35.944Z,7.75
2023-02-27T01:24:37.596Z,6.75
2023-02-27T01:25:40.400Z,7.50
2023-02-27T01:26:42.062Z,6.75
2023-02-27T01:27:44.740Z,13.75
2023-02-27T01:28:46.410Z,15.75
2023-02-27T01:29:49.094Z,14.25
2023-02-27T01:30:50.791Z,17.75
2023-02-27T01:31:53.464Z,13.50
2023-02-27T01:32:56.189Z,13.25
2023-02-27T01:33:57.850Z,9.00
2023-02-27T01:35:00.472Z,7.00
2023-02-27T01:36:02.173Z,7.00
2023-02-27T01:37:04.788Z,7.00
2023-02-27T01:38:07.795Z,3.75
2023-02-27T01:39:10.412Z,7.50
2023-02-27T01:40:13.498Z,14.25
2023-02-27T01:41:16.132Z,11.75
2023-02-27T01:42:19.544Z,11.25
2023-02-27T01:43:23.018Z,9.75
2023-02-27T01:44:25.800Z,16.50
2023-02-27T01:45:31.260Z,14.75
2023-02-27T01:46:33.119Z,11.75
2023-02-27T01:47:35.750Z,9.75
2023-02-27T01:48:37.722Z,10.25
2023-02-27T01:49:40.488Z,12.25
2023-02-27T01:50:45.703Z,11.75
2023-02-27T01:51:50.297Z,11.00
2023-02-27T01:52:53.755Z,9.75
2023-02-27T01:53:57.793Z,7.50
2023-02-27T01:54:59.430Z,6.00
2023-02-27T01:56:05.427Z,11.25
2023-02-27T01:57:07.146Z,17.50
2023-02-27T01:58:11.446Z,9.75
2023-02-27T01:59:13.130Z,14.50
2023-02-27T02:00:16.269Z,7.75
2023-02-27T02:01:18.133Z,6.25
2023-02-27T02:02:22.426Z,6.75
2023-02-27T02:03:26.433Z,5.75
2023-02-27T02:04:30.986Z,8.25
2023-02-27T02:05:32.622Z,4.50
2023-02-27T02:06:41.553Z,6.75
2023-02-27T02:07:43.193Z,7.00
2023-02-27T02:08:47.625Z,8.00
2023-02-27T02:09:53.265Z,6.00
2023-02-27T02:10:55.890Z,6.50
2023-02-27T02:11:57.568Z,5.75
2023-02-27T02:13:00.300Z,5.75
2023-02-27T02:14:02.828Z,5.75
2023-02-27T02:15:06.181Z,3.75
2023-02-27T02:16:22.038Z,5.75
2023-02-27T02:17:27.406Z,6.00
2023-02-27T02:18:32.062Z,6.00
2023-02-27T02:20:09.225Z,4.00
2023-02-27T02:21:44.494Z,6.00
2023-02-27T02:23:17.617Z,4.00
2023-02-27T02:25:08.852Z,4.00
2023-02-27T02:26:52.369Z,6.00
2023-02-27T02:28:00.273Z,4.00
2023-02-27T02:29:33.580Z,6.50
2023-02-27T02:31:17.631Z,4.00
2023-02-27T02:32:59.832Z,4.00
2023-02-27T02:34:15.395Z,4.00
2023-02-27T02:35:46.854Z,4.00
2023-02-27T02:37:32.027Z,2.00
2023-02-27T02:38:51.412Z,4.00
2023-02-27T02:40:01.015Z,5.50
2023-02-27T02:41:04.615Z,4.00
2023-02-27T02:42:11.843Z,4.00
2023-02-27T02:43:15.180Z,5.00
2023-02-27T02:44:20.423Z,4.00
2023-02-27T02:45:25.751Z,4.00
2023-02-27T02:46:32.222Z,6.00
2023-02-27T02:47:35.936Z,5.50
2023-02-27T02:48:40.687Z,9.00
2023-02-27T02:49:44.003Z,8.00
2023-02-27T02:50:50.256Z,14.00
2023-02-27T02:51:53.558Z,13.00
2023-02-27T02:52:59.457Z,11.00
2023-02-27T02:54:04.297Z,11.00
2023-02-27T02:55:09.238Z,11.00
2023-02-27T02:56:12.934Z,8.50
2023-02-27T02:57:16.549Z,9.00
2023-02-27T02:58:21.764Z,11.50
2023-02-27T02:59:28.637Z,8.00
2023-02-27T03:00:31.813Z,9.00
2023-02-27T03:01:36.436Z,12.00
2023-02-27T03:02:39.455Z,10.00
2023-02-27T03:03:42.996Z,7.50
2023-02-27T03:04:46.704Z,6.00
2023-02-27T03:05:51.173Z,6.50
2023-02-27T03:06:54.953Z,8.00
2023-02-27T03:07:58.571Z,6.50
2023-02-27T03:09:05.507Z,10.50
2023-02-27T03:10:10.050Z,13.50
2023-02-27T03:11:11.668Z,9.50
2023-02-27T03:12:16.827Z,6.50
2023-02-27T03:13:20.899Z,9.00
2023-02-27T03:14:25.698Z,6.00
2023-02-27T03:15:28.256Z,8.00
2023-02-27T03:16:32.622Z,4.00
2023-02-27T03:17:39.112Z,4.00
2023-02-27T03:18:44.316Z,8.00
2023-02-27T03:19:48.712Z,6.50
2023-02-27T03:20:53.910Z,5.00
2023-02-27T03:21:56.795Z,4.00
2023-02-27T03:23:02.555Z,2.00
2023-02-27T03:24:06.820Z,4.00
2023-02-27T03:25:10.785Z,6.00
2023-02-27T03:26:14.006Z,6.00
2023-02-27T03:27:16.829Z,4.00
2023-02-27T03:28:19.344Z,2.50
2023-02-27T03:29:24.894Z,4.00
2023-02-27T03:30:28.597Z,4.00
2023-02-27T03:31:32.974Z,5.00
2023-02-27T03:32:38.208Z,4.00
2023-02-27T03:33:42.925Z,6.00
2023-02-27T03:34:44.547Z,5.00
2023-02-27T03:35:51.866Z,5.00
2023-02-27T03:36:56.890Z,6.00
2023-02-27T03:38:01.090Z,4.00
2023-02-27T03:39:06.228Z,6.00
2023-02-27T03:40:12.252Z,5.00
2023-02-27T03:41:14.868Z,6.00
2023-02-27T03:42:21.743Z,6.00
2023-02-27T03:43:27.990Z,5.00
2023-02-27T03:44:32.751Z,6.00
2023-02-27T03:45:37.495Z,6.00
2023-02-27T03:46:40.538Z,5.00
2023-02-27T03:47:42.145Z,6.00
2023-02-27T03:48:45.175Z,5.00
2023-02-27T03:49:46.801Z,4.00
2023-02-27T03:50:49.383Z,4.00
2023-02-27T03:51:51.003Z,4.00
2023-02-27T03:52:53.631Z,4.50
2023-02-27T03:53:57.617Z,4.50
2023-02-27T03:55:03.164Z,4.00
2023-02-27T03:56:05.656Z,5.00
2023-02-27T03:57:08.722Z,6.50
2023-02-27T03:58:10.329Z,4.00
2023-02-27T03:59:13.030Z,4.00
2023-02-27T04:00:16.302Z,4.00
2023-02-27T04:01:19.191Z,5.00
2023-02-27T04:02:20.780Z,5.00
2023-02-27T04:03:23.419Z,4.00
2023-02-27T04:04:25.406Z,4.00
2023-02-27T04:05:28.499Z,4.00
2023-02-27T04:06:48.745Z,5.00
2023-02-27T04:07:59.034Z,4.00
2023-02-27T04:09:03.439Z,4.00
2023-02-27T04:10:19.144Z,6.00
2023-02-27T04:11:41.427Z,7.50
2023-02-27T04:13:28.835Z,4.00
2023-02-27T04:14:36.637Z,6.00
2023-02-27T04:15:48.102Z,6.00
2023-02-27T04:17:09.178Z,7.50
2023-02-27T04:18:20.027Z,7.00
2023-02-27T04:19:46.244Z,8.00
2023-02-27T04:20:50.477Z,6.00
2023-02-27T04:21:57.090Z,6.00
2023-02-27T04:23:00.978Z,4.00
2023-02-27T04:24:05.331Z,6.00
2023-02-27T04:25:23.993Z,3.50
2023-02-27T04:26:27.877Z,3.00
2023-02-27T04:27:35.155Z,4.00
2023-02-27T04:28:41.426Z,6.00
2023-02-27T04:29:48.550Z,2.00
2023-02-27T04:30:58.903Z,6.00
2023-02-27T04:32:02.448Z,6.00
2023-02-27T04:33:08.407Z,7.50
2023-02-27T04:34:12.513Z,4.50
2023-02-27T04:35:17.310Z,6.00
2023-02-27T04:36:23.538Z,6.00
2023-02-27T04:37:28.480Z,8.00
2023-02-27T04:38:32.372Z,8.00
2023-02-27T04:39:36.008Z,6.00
2023-02-27T04:40:40.942Z,4.50
2023-02-27T04:41:44.686Z,5.50
2023-02-27T04:42:47.583Z,9.00
2023-02-27T04:43:50.162Z,5.00
2023-02-27T04:44:51.845Z,7.00
2023-02-27T04:45:54.497Z,5.50
2023-02-27T04:46:56.424Z,6.00
2023-02-27T04:48:00.155Z,9.50
2023-02-27T04:49:04.079Z,7.50
2023-02-27T04:50:09.536Z,4.50
2023-02-27T04:51:12.897Z,6.50
2023-02-27T04:52:17.040Z,5.50
2023-02-27T04:53:20.417Z,6.50
2023-02-27T04:54:24.284Z,9.50
2023-02-27T04:55:27.316Z,9.00
2023-02-27T04:56:32.352Z,8.00
2023-02-27T04:57:36.668Z,7.50
2023-02-27T04:58:40.988Z,6.00
2023-02-27T04:59:45.231Z,6.50
2023-02-27T05:00:50.494Z,9.00
2023-02-27T05:01:55.337Z,6.50
2023-02-27T05:02:59.791Z,9.50
2023-02-27T05:04:02.385Z,8.00
2023-02-27T05:05:08.798Z,6.00
2023-02-27T05:06:11.512Z,8.00
2023-02-27T05:07:15.502Z,10.00
2023-02-27T05:08:21.153Z,7.00
2023-02-27T05:09:27.427Z,6.00
2023-02-27T05:10:30.747Z,6.00
2023-02-27T05:11:37.563Z,8.00
2023-02-27T05:12:41.070Z,7.00
2023-02-27T05:13:45.672Z,6.00
2023-02-27T05:14:50.074Z,6.50
2023-02-27T05:15:53.983Z,10.50
2023-02-27T05:16:58.820Z,8.00
2023-02-27T05:18:02.982Z,6.00
2023-02-27T05:19:04.662Z,10.00
2023-02-27T05:20:08.729Z,7.50
2023-02-27T05:21:16.172Z,8.00
2023-02-27T05:22:24.337Z,7.00
2023-02-27T05:23:31.663Z,5.50
2023-02-27T05:24:36.690Z,6.00
2023-02-27T05:25:41.700Z,6.00
2023-02-27T05:26:56.077Z,8.00
2023-02-27T05:27:59.171Z,10.00
2023-02-27T05:29:04.194Z,8.00
2023-02-27T05:30:09.036Z,5.50
2023-02-27T05:31:16.323Z,6.00
2023-02-27T05:32:22.882Z,5.00
2023-02-27T05:33:27.355Z,8.00
2023-02-27T05:34:32.060Z,7.50
2023-02-27T05:35:36.897Z,6.50
2023-02-27T05:36:39.959Z,7.50
2023-02-27T05:37:44.567Z,10.00
2023-02-27T05:38:47.485Z,6.50
2023-02-27T05:39:50.060Z,9.00
2023-02-27T05:40:53.736Z,10.00
2023-02-27T05:41:59.247Z,12.00
2023-02-27T05:43:02.962Z,10.50
2023-02-27T05:44:07.496Z,8.00
2023-02-27T05:45:10.864Z,8.00
2023-02-27T05:46:15.637Z,13.00
2023-02-27T05:47:18.540Z,13.50
2023-02-27T05:48:22.594Z,10.50
2023-02-27T05:49:25.630Z,11.00
2023-02-27T05:50:30.793Z,10.50
2023-02-27T05:51:33.708Z,7.00
2023-02-27T05:52:36.298Z,10.00
2023-02-27T05:53:39.977Z,9.00
2023-02-27T05:54:43.983Z,6.50
2023-02-27T05:55:47.039Z,10.00
2023-02-27T05:56:50.127Z,8.00
2023-02-27T05:57:54.006Z,11.50
2023-02-27T05:58:58.634Z,7.00
2023-02-27T06:00:03.006Z,7.50
2023-02-27T06:01:06.268Z,9.00
2023-02-27T06:02:07.937Z,11.00
2023-02-27T06:03:10.559Z,10.00
2023-02-27T06:04:12.439Z,10.50
2023-02-27T06:05:15.786Z,12.00
2023-02-27T06:06:18.385Z,10.50
2023-02-27T06:07:20.960Z,12.00
2023-02-27T06:08:22.600Z,14.00
2023-02-27T06:09:25.207Z,12.50
2023-02-27T06:10:27.082Z,15.50
2023-02-27T06:11:29.675Z,26.00
2023-02-27T06:12:31.424Z,14.00
2023-02-27T06:13:35.334Z,13.00
2023-02-27T06:14:37.011Z,12.00
2023-02-27T06:15:39.591Z,14.00
2023-02-27T06:16:41.252Z,15.00
2023-02-27T06:17:43.874Z,14.00
2023-02-27T06:18:45.466Z,15.50
2023-02-27T06:19:48.303Z,18.00
2023-02-27T06:20:49.985Z,16.50
2023-02-27T06:21:52.590Z,16.00
2023-02-27T06:22:54.228Z,19.50
2023-02-27T06:23:56.867Z,22.00
2023-02-27T06:24:58.547Z,22.00
2023-02-27T06:26:01.132Z,18.00
2023-02-27T06:27:02.718Z,19.50
2023-02-27T06:28:05.692Z,19.00
2023-02-27T06:29:08.642Z,19.00
2023-02-27T06:30:12.463Z,22.00
2023-02-27T06:31:14.127Z,18.00
2023-02-27T06:32:16.787Z,16.00
2023-02-27T06:33:18.448Z,15.00
2023-02-27T06:34:21.023Z,15.50
2023-02-27T06:35:22.691Z,17.00
2023-02-27T06:36:25.546Z,19.50
2023-02-27T06:37:27.354Z,16.00
2023-02-27T06:38:29.949Z,12.00
2023-02-27T06:39:32.675Z,14.00
2023-02-27T06:40:35.323Z,11.50
2023-02-27T06:41:36.963Z,18.00
2023-02-27T06:42:39.642Z,12.50
2023-02-27T06:43:41.243Z,19.50
2023-02-27T06:44:45.184Z,16.50
2023-02-27T06:45:46.938Z,22.00
2023-02-27T06:46:49.508Z,19.50
2023-02-27T06:47:52.098Z,20.00
2023-02-27T06:48:53.719Z,15.00
2023-02-27T06:49:56.309Z,19.50
2023-02-27T06:50:57.978Z,20.00
2023-02-27T06:52:00.544Z,22.00
2023-02-27T06:53:02.169Z,23.00
2023-02-27T06:54:04.933Z,22.00
2023-02-27T06:55:08.194Z,22.00
2023-02-27T06:56:10.811Z,30.00
2023-02-27T06:57:12.448Z,40.00
2023-02-27T06:58:15.076Z,22.00
2023-02-27T06:59:16.680Z,32.50
2023-02-27T07:00:21.673Z,41.25
2023-02-27T07:01:24.894Z,40.25
2023-02-27T07:02:27.512Z,42.25
2023-02-27T07:03:29.128Z,30.75
2023-02-27T07:04:31.740Z,33.25
2023-02-27T07:05:33.394Z,32.25
2023-02-27T07:07:35.850Z,34.25
2023-02-27T07:07:59.291Z,39.00
2023-02-27T07:09:06.857Z,29.50
2023-02-27T07:10:11.617Z,32.50
2023-02-27T07:11:14.231Z,27.25
2023-02-27T07:12:15.909Z,34.50
2023-02-27T07:13:19.694Z,30.50
2023-02-27T07:14:21.659Z,33.50
2023-02-27T07:15:25.583Z,26.25
2023-02-27T07:16:27.488Z,22.25
2023-02-27T07:17:30.251Z,22.50
2023-02-27T07:18:32.086Z,23.00
2023-02-27T07:19:35.900Z,26.25
2023-02-27T07:20:37.566Z,25.50
2023-02-27T07:21:40.146Z,25.25
2023-02-27T07:22:42.769Z,24.00
2023-02-27T07:23:45.361Z,25.00
2023-02-27T07:24:47.020Z,21.75
2023-02-27T07:25:49.602Z,17.50
2023-02-27T07:26:51.261Z,21.00
2023-02-27T07:27:53.905Z,16.25
2023-02-27T07:28:55.519Z,20.25
2023-02-27T07:29:58.128Z,22.00
2023-02-27T07:31:02.201Z,13.75
2023-02-27T07:32:03.952Z,18.00
2023-02-27T07:33:07.076Z,16.75
2023-02-27T07:34:09.624Z,22.75
2023-02-27T07:35:12.743Z,19.25
2023-02-27T07:36:14.345Z,19.50
2023-02-27T07:37:16.994Z,20.50
2023-02-27T07:38:19.132Z,21.00
2023-02-27T07:39:21.729Z,21.50
2023-02-27T07:40:23.341Z,20.00
2023-02-27T07:41:30.616Z,20.00
2023-02-27T07:42:32.833Z,17.00
2023-02-27T07:43:35.436Z,21.50
2023-02-27T07:44:38.135Z,20.75
2023-02-27T07:45:39.758Z,25.75
2023-02-27T07:46:44.643Z,16.25
2023-02-27T07:47:47.335Z,21.00
2023-02-27T07:48:48.977Z,16.25
2023-02-27T07:49:51.550Z,20.25
2023-02-27T07:50:54.144Z,17.00
2023-02-27T07:51:56.251Z,18.00
2023-02-27T07:52:58.874Z,19.00
2023-02-27T07:54:01.444Z,16.00
2023-02-27T07:55:03.086Z,12.25
2023-02-27T07:56:06.271Z,24.25
2023-02-27T07:57:08.874Z,22.25
2023-02-27T07:58:11.464Z,18.00
2023-02-27T07:59:13.110Z,22.50
2023-02-27T08:00:16.493Z,21.75
2023-02-27T08:01:19.080Z,16.25
2023-02-27T08:02:22.091Z,17.00
2023-02-27T08:03:24.721Z,25.75
2023-02-27T08:04:27.347Z,18.00
2023-02-27T08:05:29.050Z,18.50
2023-02-27T08:06:31.644Z,17.00
2023-02-27T08:07:33.261Z,14.25
2023-02-27T08:08:35.926Z,11.50
2023-02-27T08:09:38.495Z,12.75
2023-02-27T08:10:40.095Z,18.00
2023-02-27T08:11:42.673Z,15.25
2023-02-27T08:12:45.812Z,16.00
2023-02-27T08:14:03.287Z,13.25
2023-02-27T08:15:07.245Z,12.50
2023-02-27T08:16:09.857Z,9.00
2023-02-27T08:17:11.466Z,9.00
2023-02-27T08:18:15.425Z,11.75
2023-02-27T08:19:17.063Z,11.75
2023-02-27T08:20:22.586Z,9.00
2023-02-27T08:21:24.306Z,12.00
2023-02-27T08:22:27.023Z,11.50
2023-02-27T08:23:29.614Z,9.75
2023-02-27T08:24:31.246Z,9.50
2023-02-27T08:25:33.889Z,9.50
2023-02-27T08:26:35.541Z,8.50
2023-02-27T08:27:38.165Z,7.75
2023-02-27T08:28:39.854Z,6.00
2023-02-27T08:29:43.265Z,8.25
2023-02-27T08:30:44.889Z,6.75
2023-02-27T08:31:47.809Z,7.50
2023-02-27T08:32:49.439Z,6.75
2023-02-27T08:34:04.271Z,9.50
2023-02-27T08:35:10.780Z,13.50
2023-02-27T08:36:13.425Z,5.75
2023-02-27T08:37:16.059Z,8.25
2023-02-27T08:38:17.662Z,8.00
2023-02-27T08:39:20.438Z,5.50
2023-02-27T08:40:22.077Z,6.00
2023-02-27T08:41:24.704Z,6.00
2023-02-27T08:42:26.991Z,7.50
2023-02-27T08:43:29.619Z,3.00
2023-02-27T08:44:31.228Z,3.00
2023-02-27T08:45:33.856Z,5.25
2023-02-27T08:46:35.544Z,5.00
2023-02-27T08:47:38.172Z,3.00
2023-02-27T08:48:42.168Z,5.00
2023-02-27T08:49:46.100Z,3.00
2023-02-27T08:50:47.771Z,3.00
2023-02-27T08:51:50.416Z,3.00
2023-02-27T08:52:52.983Z,5.00
2023-02-27T08:53:58.753Z,6.00
2023-02-27T08:55:01.337Z,3.00
2023-02-27T08:56:02.933Z,1.00
2023-02-27T08:57:05.554Z,5.00
2023-02-27T08:58:07.373Z,3.00
2023-02-27T08:59:09.988Z,3.00
2023-02-27T09:00:15.112Z,1.00
2023-02-27T09:01:16.818Z,7.50
2023-02-27T09:02:19.549Z,3.00
2023-02-27T09:03:21.374Z,1.00
2023-02-27T09:04:23.976Z,3.00
2023-02-27T09:05:26.924Z,1.00
2023-02-27T09:06:29.892Z,1.50
2023-02-27T09:07:31.726Z,5.00
2023-02-27T09:08:34.336Z,3.00
2023-02-27T09:09:35.946Z,4.75
2023-02-27T09:10:38.557Z,3.00
2023-02-27T09:11:40.262Z,3.00
2023-02-27T09:12:42.926Z,3.00
2023-02-27T09:13:45.241Z,2.50
2023-02-27T09:14:47.849Z,3.00
2023-02-27T09:15:49.497Z,3.00
2023-02-27T09:16:52.147Z,3.00
2023-02-27T09:17:56.371Z,1.00
2023-02-27T09:18:59.006Z,3.00
2023-02-27T09:20:00.742Z,3.00
2023-02-27T09:21:04.871Z,3.75
2023-02-27T09:22:07.444Z,3.00
2023-02-27T09:23:09.071Z,2.50
2023-02-27T09:24:19.803Z,3.00
2023-02-27T09:25:24.077Z,3.00
2023-02-27T09:26:40.055Z,3.75
2023-02-27T09:27:43.440Z,1.00
2023-02-27T09:28:45.063Z,1.00
2023-02-27T09:29:48.897Z,1.00
2023-02-27T09:30:50.547Z,1.00
2023-02-27T09:31:53.387Z,1.00
2023-02-27T09:32:55.048Z,1.50
2023-02-27T09:33:58.187Z,3.00
2023-02-27T09:35:00.414Z,3.00
2023-02-27T09:36:05.629Z,1.00
2023-02-27T09:37:08.244Z,1.00
2023-02-27T09:38:10.394Z,3.00
2023-02-27T09:39:13.026Z,3.00
2023-02-27T09:40:19.903Z,1.00
2023-02-27T09:41:43.201Z,2.50
2023-02-27T09:42:47.592Z,2.00
2023-02-27T09:43:50.141Z,1.00
2023-02-27T09:44:53.310Z,3.00
2023-02-27T09:45:56.385Z,3.00
2023-02-27T09:46:58.035Z,3.00
2023-02-27T09:48:01.493Z,2.00
2023-02-27T09:49:04.755Z,3.00
2023-02-27T09:50:08.887Z,1.00
2023-02-27T09:51:11.840Z,1.00
2023-02-27T09:52:14.472Z,1.00
2023-02-27T09:53:18.672Z,1.50
2023-02-27T09:54:21.279Z,3.00
2023-02-27T09:55:24.005Z,1.00
2023-02-27T09:56:28.194Z,3.25
2023-02-27T09:57:42.046Z,1.50
2023-02-27T09:58:46.779Z,3.75
2023-02-27T09:59:50.643Z,3.00
2023-02-27T10:00:57.192Z,3.00
2023-02-27T10:02:01.298Z,3.00
2023-02-27T10:03:09.147Z,3.00
2023-02-27T10:04:28.675Z,2.50
2023-02-27T10:05:33.079Z,1.00
2023-02-27T10:06:39.845Z,1.00
2023-02-27T10:07:42.785Z,1.00
2023-02-27T10:08:47.187Z,1.00
2023-02-27T10:09:55.597Z,1.00
2023-02-27T10:11:00.897Z,1.00
2023-02-27T10:12:10.957Z,1.00
2023-02-27T10:13:31.433Z,1.00
2023-02-27T10:14:38.692Z,1.00
2023-02-27T10:15:42.829Z,1.50
2023-02-27T10:16:44.540Z,4.00
2023-02-27T10:17:50.054Z,1.00
2023-02-27T10:18:55.269Z,2.00
2023-02-27T10:19:58.199Z,3.00
2023-02-27T10:21:01.556Z,4.00
2023-02-27T10:22:07.590Z,1.00
2023-02-27T10:23:11.881Z,1.00
2023-02-27T10:24:18.530Z,2.00
2023-02-27T10:25:31.233Z,3.00
2023-02-27T10:26:37.465Z,1.50
2023-02-27T10:27:40.059Z,3.00
2023-02-27T10:28:41.680Z,1.00
2023-02-27T10:29:44.306Z,3.00
2023-02-27T10:30:48.812Z,1.50
2023-02-27T10:31:53.577Z,2.50
2023-02-27T10:32:57.737Z,1.00
2023-02-27T10:33:59.351Z,3.00
2023-02-27T10:35:08.457Z,3.00
2023-02-27T10:36:18.021Z,3.00
2023-02-27T10:37:25.732Z,1.00
2023-02-27T10:38:31.303Z,2.50
2023-02-27T10:39:38.735Z,3.00
2023-02-27T10:40:40.543Z,3.00
2023-02-27T10:41:43.198Z,2.50
2023-02-27T10:42:44.995Z,3.50
2023-02-27T10:43:47.589Z,1.00
2023-02-27T10:44:53.467Z,1.00
2023-02-27T10:45:56.300Z,3.00
2023-02-27T10:46:58.903Z,1.00
2023-02-27T10:48:01.573Z,3.00
2023-02-27T10:49:08.248Z,1.00
2023-02-27T10:50:21.826Z,3.00
2023-02-27T10:51:26.511Z,3.25
2023-02-27T10:52:30.654Z,1.00
2023-02-27T10:53:32.254Z,4.00
2023-02-27T10:54:34.880Z,3.00
2023-02-27T10:55:39.106Z,2.00
2023-02-27T10:56:40.855Z,3.00
2023-02-27T10:57:43.685Z,3.00
2023-02-27T10:58:46.280Z,2.75
2023-02-27T10:59:52.291Z,3.25
2023-02-27T11:00:55.716Z,2.75
2023-02-27T11:01:58.274Z,2.75
2023-02-27T11:03:00.962Z,2.75
2023-02-27T11:04:03.556Z,1.00
2023-02-27T11:05:06.207Z,2.75
2023-02-27T11:06:10.640Z,2.75
2023-02-27T11:07:12.446Z,2.75
2023-02-27T11:08:21.601Z,2.75
2023-02-27T11:09:24.450Z,2.50
2023-02-27T11:10:28.151Z,2.75
2023-02-27T11:11:30.864Z,1.00
2023-02-27T11:12:33.254Z,2.75
2023-02-27T11:13:36.581Z,2.50
2023-02-27T11:14:48.160Z,2.75
2023-02-27T11:16:07.117Z,5.25
2023-02-27T11:17:10.112Z,3.50
2023-02-27T11:18:25.868Z,2.50
2023-02-27T11:19:33.478Z,2.75
2023-02-27T11:20:37.537Z,2.00
2023-02-27T11:21:39.160Z,1.25
2023-02-27T11:22:42.631Z,2.00
2023-02-27T11:23:53.593Z,2.00
2023-02-27T11:25:16.607Z,1.00
2023-02-27T11:26:20.887Z,2.75
2023-02-27T11:27:26.535Z,1.00
2023-02-27T11:28:29.714Z,2.00
2023-02-27T11:29:32.360Z,1.00
2023-02-27T11:30:35.611Z,1.00
2023-02-27T11:31:38.652Z,2.50
2023-02-27T11:32:45.239Z,4.25
2023-02-27T11:33:50.786Z,1.00
2023-02-27T11:34:53.485Z,2.00
2023-02-27T11:35:57.745Z,1.00
2023-02-27T11:37:02.219Z,1.00
2023-02-27T11:38:04.661Z,1.00
2023-02-27T11:39:08.762Z,1.00
2023-02-27T11:40:15.635Z,2.00
2023-02-27T11:41:18.712Z,2.00
2023-02-27T11:42:24.781Z,2.00
2023-02-27T11:43:28.412Z,2.00
2023-02-27T11:44:50.370Z,1.00
2023-02-27T11:46:04.413Z,3.00
2023-02-27T11:47:14.582Z,4.00
2023-02-27T11:48:19.462Z,1.00
2023-02-27T11:49:28.164Z,1.25
2023-02-27T11:50:37.730Z,2.00
2023-02-27T11:51:48.007Z,1.00
2023-02-27T11:52:50.760Z,2.00
2023-02-27T11:54:09.388Z,2.00
2023-02-27T11:55:15.901Z,2.00
2023-02-27T11:56:18.743Z,1.00
2023-02-27T11:57:23.600Z,2.00
2023-02-27T11:58:27.902Z,2.50
2023-02-27T11:59:37.732Z,2.00
2023-02-27T12:00:40.574Z,2.00
2023-02-27T12:01:45.924Z,2.00
2023-02-27T12:02:50.058Z,2.50
2023-02-27T12:03:55.935Z,1.00
2023-02-27T12:05:00.695Z,1.00
2023-02-27T12:06:04.822Z,2.00
2023-02-27T12:07:10.911Z,3.75
2023-02-27T12:08:15.625Z,3.75
2023-02-27T12:09:30.529Z,4.75
2023-02-27T12:10:35.987Z,4.50
2023-02-27T12:11:38.878Z,2.00
2023-02-27T12:12:44.152Z,1.00
2023-02-27T12:13:50.568Z,2.50
2023-02-27T12:15:00.541Z,2.00
2023-02-27T12:16:05.029Z,4.50
2023-02-27T12:17:10.720Z,2.50
2023-02-27T12:18:16.530Z,2.00
2023-02-27T12:19:19.511Z,3.00
2023-02-27T12:20:29.065Z,2.00
2023-02-27T12:21:32.689Z,2.00
2023-02-27T12:22:37.398Z,1.50
2023-02-27T12:23:41.943Z,11.75
2023-02-27T12:24:47.125Z,3.00
2023-02-27T12:25:52.590Z,4.00
2023-02-27T12:26:58.190Z,2.50
2023-02-27T12:28:02.541Z,4.00
2023-02-27T12:29:10.070Z,5.00
2023-02-27T12:30:15.017Z,8.00
2023-02-27T12:31:43.567Z,6.25
2023-02-27T12:32:50.145Z,2.00
2023-02-27T12:33:54.431Z,4.00
2023-02-27T12:35:00.227Z,2.00
2023-02-27T12:36:02.789Z,2.00
2023-02-27T12:37:06.546Z,4.00
2023-02-27T12:38:08.360Z,4.00
2023-02-27T12:39:16.214Z,4.00
2023-02-27T12:40:20.974Z,4.25
2023-02-27T12:41:31.174Z,4.00
2023-02-27T12:42:55.174Z,2.00
2023-02-27T12:44:04.009Z,2.00
2023-02-27T12:45:34.130Z,3.75
2023-02-27T12:46:42.919Z,2.75
2023-02-27T12:47:46.696Z,2.75
2023-02-27T12:49:01.679Z,4.00
2023-02-27T12:50:06.351Z,2.75
2023-02-27T12:51:28.566Z,2.75
2023-02-27T12:52:37.408Z,2.00
2023-02-27T12:53:51.779Z,6.00
2023-02-27T12:55:01.412Z,4.00
2023-02-27T12:56:09.215Z,4.00
2023-02-27T12:57:31.838Z,4.00
2023-02-27T12:58:38.236Z,3.75
2023-02-27T13:00:06.997Z,4.00
2023-02-27T13:01:16.469Z,5.00
2023-02-27T13:02:29.732Z,4.00
2023-02-27T13:03:35.439Z,3.00
2023-02-27T13:04:40.110Z,4.00
2023-02-27T13:05:46.928Z,2.75
2023-02-27T13:06:50.090Z,3.00
2023-02-27T13:07:54.401Z,4.00
2023-02-27T13:09:21.832Z,5.00
2023-02-27T13:10:24.729Z,6.50
2023-02-27T13:11:35.406Z,7.25
2023-02-27T13:12:40.137Z,7.00
2023-02-27T13:13:42.804Z,3.00
2023-02-27T13:14:48.113Z,4.00
2023-02-27T13:15:52.419Z,3.50
2023-02-27T13:16:56.295Z,4.50
2023-02-27T13:18:00.345Z,4.00
2023-02-27T13:19:06.047Z,4.00
2023-02-27T13:20:17.726Z,4.00
2023-02-27T13:21:22.133Z,4.75
2023-02-27T13:22:30.008Z,4.25
2023-02-27T13:23:33.653Z,3.00
2023-02-27T13:24:43.946Z,4.50
2023-02-27T13:25:50.800Z,2.00
2023-02-27T13:26:58.723Z,2.00
2023-02-27T13:28:02.168Z,4.00
2023-02-27T13:29:03.954Z,2.00
2023-02-27T13:30:14.255Z,4.25
2023-02-27T13:31:20.038Z,2.00
2023-02-27T13:32:36.528Z,2.00
2023-02-27T13:33:48.731Z,4.00
2023-02-27T13:34:52.692Z,2.00
2023-02-27T13:35:57.841Z,2.00
2023-02-27T13:37:02.852Z,3.00
2023-02-27T13:38:31.874Z,4.00
2023-02-27T13:39:43.789Z,2.75
2023-02-27T13:40:46.420Z,3.50
2023-02-27T13:41:48.064Z,4.50
2023-02-27T13:42:54.138Z,5.00
2023-02-27T13:43:56.802Z,4.00
2023-02-27T13:44:58.524Z,2.00
2023-02-27T13:46:01.732Z,1.00
2023-02-27T13:47:37.916Z,3.50
2023-02-27T13:48:48.204Z,4.00
2023-02-27T13:49:49.842Z,3.00
2023-02-27T13:50:52.738Z,3.00
2023-02-27T13:51:56.509Z,4.00
2023-02-27T13:52:58.191Z,4.50
2023-02-27T13:54:16.396Z,4.00
2023-02-27T13:55:27.102Z,4.75
2023-02-27T13:56:29.238Z,4.00
2023-02-27T13:57:32.723Z,4.00
2023-02-27T13:58:36.706Z,4.75
2023-02-27T13:59:39.588Z,4.00
2023-02-27T14:00:42.189Z,4.00
2023-02-27T14:01:50.244Z,4.00
2023-02-27T14:03:00.018Z,5.50
2023-02-27T14:04:04.737Z,7.25
2023-02-27T14:05:07.395Z,5.75
2023-02-27T14:06:10.167Z,5.00
2023-02-27T14:07:13.299Z,4.00
2023-02-27T14:08:16.531Z,4.00
2023-02-27T14:09:20.187Z,4.00
2023-02-27T14:10:24.021Z,4.00
2023-02-27T14:11:27.711Z,5.50
2023-02-27T14:12:42.556Z,5.00
2023-02-27T14:14:08.054Z,2.00
2023-02-27T14:15:30.117Z,3.25
2023-02-27T14:16:58.675Z,4.00
2023-02-27T14:18:15.758Z,2.75
2023-02-27T14:19:44.939Z,3.50
2023-02-27T14:20:51.242Z,3.50
2023-02-27T14:21:57.106Z,2.00